Time;durP1;ratioP1;P1;durP2;ratioP2;P2;SDS_P1;SDS_P2;PMS_P1;PMS_P2;Temp;Humidity;BMP_temperature;BMP_pressure;BME280_temperature;BME280_humidity;BME280_pressure;Samples;Min_cycle;Max_cycle;Signal;HPM_P1;HPM_P2
2022/03/11 00:01:20;;;;;;;10.70;7.50;;;1.80;76.40;;;;;;5076141;28;20223;-83
2022/03/11 00:03:47;;;;;;;12.13;7.67;;;1.70;76.40;;;;;;5070140;28;20338;-82
2022/03/11 00:06:13;;;;;;;9.33;6.90;;;1.70;76.70;;;;;;5081185;28;20219;-81
2022/03/11 00:08:40;;;;;;;10.13;7.47;;;1.60;76.50;;;;;;5079080;28;20234;-82
2022/03/11 00:11:08;;;;;;;10.13;7.33;;;1.70;76.40;;;;;;5080815;28;20250;-82
2022/03/11 00:13:35;;;;;;;9.33;7.00;;;1.60;76.30;;;;;;5072695;28;20902;-83
2022/03/11 00:16:02;;;;;;;8.10;6.97;;;1.60;76.20;;;;;;5071211;28;20241;-82
2022/03/11 00:18:28;;;;;;;9.50;7.23;;;1.50;76.20;;;;;;5070892;28;20236;-83
2022/03/11 00:20:56;;;;;;;10.07;6.80;;;1.50;76.10;;;;;;5073392;28;20230;-81
2022/03/11 00:23:23;;;;;;;9.50;6.83;;;1.50;76.20;;;;;;5068214;28;20333;-83
2022/03/11 00:25:49;;;;;;;9.57;6.30;;;1.40;76.10;;;;;;5078625;28;20226;-85
2022/03/11 00:28:17;;;;;;;9.00;6.60;;;1.40;76.00;;;;;;5069054;28;20230;-84
2022/03/11 00:30:44;;;;;;;9.73;7.07;;;1.40;76.30;;;;;;5066126;28;20239;-84
2022/03/11 00:33:11;;;;;;;9.60;6.23;;;1.30;75.80;;;;;;5069389;28;20229;-84
2022/03/11 00:35:40;;;;;;;9.67;6.27;;;1.30;75.80;;;;;;5078371;28;20227;-84
2022/03/11 00:38:07;;;;;;;9.63;6.40;;;1.30;76.00;;;;;;5067017;28;20306;-84
2022/03/11 00:40:34;;;;;;;9.53;6.93;;;1.30;75.90;;;;;;5057888;28;20632;-84
2022/03/11 00:43:00;;;;;;;10.07;7.03;;;1.30;75.70;;;;;;5071596;28;20237;-83
2022/03/11 00:45:29;;;;;;;10.07;6.20;;;1.30;75.80;;;;;;5066077;28;20703;-84
2022/03/11 00:47:55;;;;;;;8.17;6.30;;;1.20;75.80;;;;;;5067460;28;20923;-83
2022/03/11 00:50:22;;;;;;;9.07;6.50;;;1.20;75.70;;;;;;5067457;28;20223;-84
2022/03/11 00:52:49;;;;;;;9.40;6.23;;;1.20;75.60;;;;;;5066236;28;20231;-83
2022/03/11 00:55:16;;;;;;;9.57;5.83;;;1.20;75.70;;;;;;5067565;28;20224;-82
2022/03/11 00:57:44;;;;;;;9.67;6.63;;;1.20;75.80;;;;;;5074499;28;20766;-81
2022/03/11 01:00:12;;;;;;;7.67;5.83;;;1.10;75.70;;;;;;5068338;28;20318;-82
2022/03/11 01:02:44;;;;;;;10.03;6.33;;;1.10;75.70;;;;;;5077345;28;20233;-83
2022/03/11 01:05:11;;;;;;;9.63;5.93;;;1.20;75.80;;;;;;5067755;28;20229;-78
2022/03/11 01:07:38;;;;;;;9.17;6.00;;;1.10;75.90;;;;;;5076434;28;20233;-78
2022/03/11 01:10:06;;;;;;;8.50;6.10;;;1.10;76.00;;;;;;5069842;28;20316;-80
2022/03/11 01:12:33;;;;;;;9.77;6.10;;;1.00;75.80;;;;;;5071318;28;20237;-79
2022/03/11 01:15:00;;;;;;;9.07;6.20;;;1.00;75.70;;;;;;5070510;28;20310;-80
2022/03/11 01:17:27;;;;;;;9.07;6.33;;;1.00;75.60;;;;;;5069603;28;20328;-78
2022/03/11 01:19:55;;;;;;;8.30;5.93;;;1.00;75.70;;;;;;5078065;28;20227;-79
2022/03/11 01:22:21;;;;;;;9.00;5.80;;;0.90;75.60;;;;;;5089484;28;20230;-79
2022/03/11 01:24:48;;;;;;;9.23;5.90;;;0.90;76.40;;;;;;5079467;28;20329;-79
2022/03/11 01:27:15;;;;;;;7.77;5.77;;;0.90;75.60;;;;;;5083051;28;20215;-78
2022/03/11 01:29:42;;;;;;;12.33;6.50;;;0.90;75.50;;;;;;5070803;28;20257;-79
2022/03/11 01:32:08;;;;;;;9.70;6.07;;;0.80;75.70;;;;;;5069759;28;20554;-79
2022/03/11 01:34:35;;;;;;;9.30;5.90;;;0.80;75.70;;;;;;5072198;28;20252;-78
2022/03/11 01:37:04;;;;;;;11.13;6.57;;;0.80;75.60;;;;;;5071880;28;20229;-79
2022/03/11 01:39:31;;;;;;;9.70;6.00;;;0.70;75.60;;;;;;5074354;28;20224;-79
2022/03/11 01:41:57;;;;;;;9.20;6.10;;;0.70;75.80;;;;;;5059583;28;20232;-79
2022/03/11 01:44:25;;;;;;;10.03;6.00;;;0.70;75.70;;;;;;5072355;28;21403;-79
2022/03/11 01:46:51;;;;;;;10.30;6.13;;;0.70;75.80;;;;;;5075121;28;20235;-79
2022/03/11 01:49:19;;;;;;;10.50;6.10;;;0.60;75.70;;;;;;5078800;28;20764;-79
2022/03/11 01:51:47;;;;;;;10.07;6.20;;;0.60;75.80;;;;;;5075511;28;20229;-79
2022/03/11 01:54:16;;;;;;;11.17;6.60;;;0.60;75.90;;;;;;5079139;28;20336;-80
2022/03/11 01:56:43;;;;;;;10.00;5.70;;;0.60;76.10;;;;;;5070728;28;20228;-79
2022/03/11 01:59:11;;;;;;;9.87;6.33;;;0.50;76.00;;;;;;5074291;28;20228;-79
2022/03/11 02:01:38;;;;;;;11.47;6.83;;;0.50;76.10;;;;;;5076795;28;20593;-79
2022/03/11 02:04:05;;;;;;;10.37;5.80;;;0.50;76.10;;;;;;5074717;28;20720;-79
2022/03/11 02:06:32;;;;;;;10.00;6.30;;;0.50;76.10;;;;;;5075368;28;20345;-80
2022/03/11 02:09:01;;;;;;;11.40;6.73;;;0.40;76.00;;;;;;5082155;28;20523;-79
2022/03/11 02:11:29;;;;;;;11.40;6.20;;;0.40;76.20;;;;;;5078700;28;20260;-79
2022/03/11 02:13:58;;;;;;;9.47;6.13;;;0.40;76.20;;;;;;5071546;28;20237;-80
2022/03/11 02:16:27;;;;;;;10.30;6.07;;;0.40;76.20;;;;;;5071896;28;20679;-79
2022/03/11 02:18:54;;;;;;;9.40;6.33;;;0.30;76.20;;;;;;5079280;28;20222;-80
2022/03/11 02:21:23;;;;;;;7.73;6.07;;;0.30;76.20;;;;;;5078784;28;20277;-79
2022/03/11 02:23:53;;;;;;;9.87;6.13;;;0.30;76.30;;;;;;5075310;28;20233;-79
2022/03/11 02:26:22;;;;;;;15.03;6.87;;;0.30;76.60;;;;;;5077918;28;20261;-79
2022/03/11 02:28:50;;;;;;;11.20;6.77;;;0.30;76.70;;;;;;5071960;28;20227;-79
2022/03/11 02:31:18;;;;;;;9.67;6.67;;;0.20;76.50;;;;;;5067216;28;20227;-79
2022/03/11 02:33:44;;;;;;;11.13;6.40;;;0.20;76.40;;;;;;5078147;28;20231;-79
2022/03/11 02:36:11;;;;;;;9.53;6.17;;;0.20;76.40;;;;;;5072419;28;20239;-79
2022/03/11 02:38:38;;;;;;;11.27;6.63;;;0.20;76.30;;;;;;5075581;28;20224;-78
2022/03/11 02:41:07;;;;;;;9.73;6.10;;;0.10;76.20;;;;;;5073655;28;20238;-78
2022/03/11 02:43:34;;;;;;;10.93;6.53;;;0.10;76.30;;;;;;5073871;28;20237;-79
2022/03/11 02:46:01;;;;;;;11.87;6.53;;;0.10;76.30;;;;;;5074052;28;20603;-78
2022/03/11 02:48:28;;;;;;;10.23;6.23;;;0.10;76.30;;;;;;5079416;28;20226;-78
2022/03/11 02:50:55;;;;;;;9.27;6.40;;;0.10;76.20;;;;;;5066863;28;20223;-78
2022/03/11 02:53:22;;;;;;;10.87;7.10;;;0.10;76.40;;;;;;5072763;28;20225;-78
2022/03/11 02:55:49;;;;;;;9.77;6.60;;;0.00;76.40;;;;;;5072301;28;20318;-78
2022/03/11 02:58:17;;;;;;;10.77;7.20;;;0.00;76.60;;;;;;5071519;28;20257;-80
2022/03/11 03:00:43;;;;;;;13.77;6.83;;;0.00;76.50;;;;;;5073833;28;20220;-79
2022/03/11 03:03:10;;;;;;;10.83;7.10;;;0.00;76.20;;;;;;5094082;28;20242;-80
2022/03/11 03:05:37;;;;;;;11.47;6.70;;;0.00;76.40;;;;;;5073398;28;20326;-80
2022/03/11 03:08:07;;;;;;;9.77;6.00;;;-0.10;76.40;;;;;;5071094;28;20234;-79
2022/03/11 03:10:34;;;;;;;9.07;6.23;;;-0.10;76.20;;;;;;5072694;28;20224;-80
2022/03/11 03:13:02;;;;;;;9.50;6.20;;;-0.10;76.20;;;;;;5071293;28;20437;-79
2022/03/11 03:15:32;;;;;;;10.47;6.47;;;-0.10;76.50;;;;;;5076458;28;20249;-79
2022/03/11 03:17:58;;;;;;;13.27;7.67;;;-0.20;76.50;;;;;;5072262;28;20227;-79
2022/03/11 03:20:25;;;;;;;14.33;7.43;;;-0.20;76.50;;;;;;5078213;28;20569;-79
2022/03/11 03:22:52;;;;;;;12.40;7.77;;;-0.20;76.50;;;;;;5074780;28;20235;-79
2022/03/11 03:25:19;;;;;;;11.97;7.27;;;-0.30;76.40;;;;;;5059722;28;20223;-79
2022/03/11 03:27:46;;;;;;;10.63;6.97;;;-0.30;76.60;;;;;;5077498;28;20226;-78
2022/03/11 03:30:14;;;;;;;13.67;7.10;;;-0.30;76.80;;;;;;5074015;28;20340;-78
2022/03/11 03:32:42;;;;;;;11.03;7.47;;;-0.30;76.80;;;;;;5078565;28;20285;-79
2022/03/11 03:35:10;;;;;;;10.63;6.90;;;-0.30;76.80;;;;;;5074683;28;20220;-78
2022/03/11 03:37:37;;;;;;;11.63;8.43;;;-0.40;76.90;;;;;;5074455;28;20368;-78
2022/03/11 03:40:04;;;;;;;11.27;7.10;;;-0.40;76.70;;;;;;5073690;28;20235;-79
2022/03/11 03:42:31;;;;;;;10.23;7.20;;;-0.40;76.70;;;;;;5079626;28;20230;-79
2022/03/11 03:44:58;;;;;;;12.00;7.33;;;-0.50;76.70;;;;;;5076579;28;20733;-79
2022/03/11 03:47:25;;;;;;;13.07;7.23;;;-0.50;76.60;;;;;;5071724;28;20237;-78
2022/03/11 03:49:53;;;;;;;11.73;7.07;;;-0.50;76.70;;;;;;5069978;28;20224;-79
2022/03/11 03:52:20;;;;;;;13.10;7.47;;;-0.50;76.70;;;;;;5074801;28;20225;-79
2022/03/11 03:54:47;;;;;;;10.40;7.17;;;-0.60;76.60;;;;;;5073779;28;20524;-78
2022/03/11 03:57:13;;;;;;;11.23;6.90;;;-0.60;76.60;;;;;;5072852;28;20228;-79
2022/03/11 03:59:40;;;;;;;13.07;7.10;;;-0.60;76.60;;;;;;5076884;28;20223;-78
2022/03/11 04:02:07;;;;;;;10.93;7.20;;;-0.60;76.70;;;;;;5071463;28;20274;-79
2022/03/11 04:04:34;;;;;;;10.87;7.07;;;-0.60;76.90;;;;;;5076105;28;20239;-79
2022/03/11 04:07:02;;;;;;;13.33;7.47;;;-0.60;76.90;;;;;;5076995;28;20786;-79
2022/03/11 04:09:29;;;;;;;14.73;7.57;;;-0.70;76.70;;;;;;5077145;28;20234;-79
2022/03/11 04:11:56;;;;;;;12.33;7.80;;;-0.70;76.60;;;;;;5075310;28;20317;-81
2022/03/11 04:14:22;;;;;;;12.37;7.30;;;-0.70;76.90;;;;;;5075120;28;20775;-81
2022/03/11 04:16:49;;;;;;;13.10;7.07;;;-0.70;76.80;;;;;;5075509;28;20234;-80
2022/03/11 04:19:16;;;;;;;12.43;7.80;;;-0.70;76.90;;;;;;5072514;28;20234;-80
2022/03/11 04:21:42;;;;;;;11.90;7.10;;;-0.70;76.90;;;;;;5072827;28;20254;-79
2022/03/11 04:24:14;;;;;;;11.90;7.13;;;-0.70;77.10;;;;;;5071647;28;20231;-79
2022/03/11 04:26:43;;;;;;;12.03;7.43;;;-0.80;76.80;;;;;;5069954;28;20232;-79
2022/03/11 04:29:10;;;;;;;13.67;7.30;;;-0.80;76.90;;;;;;5074153;28;20284;-80
2022/03/11 04:31:37;;;;;;;10.70;7.17;;;-0.80;76.90;;;;;;5071250;28;20239;-79
2022/03/11 04:34:04;;;;;;;12.90;7.23;;;-0.80;76.80;;;;;;5077181;28;20220;-80
2022/03/11 04:36:38;;;;;;;14.37;7.70;;;-0.90;76.90;;;;;;5080689;28;20379;-79
2022/03/11 04:39:05;;;;;;;11.03;7.17;;;-0.80;76.80;;;;;;5073317;28;20243;-79
2022/03/11 04:41:33;;;;;;;12.13;7.67;;;-0.90;76.90;;;;;;5071379;28;20263;-78
2022/03/11 04:44:00;;;;;;;10.77;6.90;;;-0.90;76.90;;;;;;5071076;28;20237;-79
2022/03/11 04:46:27;;;;;;;11.43;7.40;;;-1.00;76.80;;;;;;5071474;28;20234;-79
2022/03/11 04:48:53;;;;;;;14.57;8.17;;;-1.00;76.70;;;;;;5071959;28;20587;-80
2022/03/11 04:51:22;;;;;;;11.17;7.07;;;-1.00;77.00;;;;;;5071082;28;20229;-81
2022/03/11 04:53:48;;;;;;;13.67;7.77;;;-1.00;76.90;;;;;;5069701;28;20237;-81
2022/03/11 04:56:15;;;;;;;11.00;6.97;;;-1.00;76.90;;;;;;5070917;28;20233;-81
2022/03/11 04:58:43;;;;;;;12.77;7.70;;;-1.10;77.30;;;;;;5057854;28;20225;-80
2022/03/11 05:01:10;;;;;;;10.50;7.03;;;-1.10;76.80;;;;;;5068609;28;20231;-80
2022/03/11 05:03:36;;;;;;;10.27;6.90;;;-1.10;76.80;;;;;;5072899;28;20232;-78
2022/03/11 05:06:03;;;;;;;12.70;7.50;;;-1.10;76.90;;;;;;5071142;28;20234;-79
2022/03/11 05:08:30;;;;;;;12.53;8.13;;;-1.10;76.70;;;;;;5073131;28;20785;-79
2022/03/11 05:10:56;;;;;;;12.57;7.30;;;-1.10;76.70;;;;;;5070797;28;20214;-79
2022/03/11 05:13:24;;;;;;;16.00;9.00;;;-1.10;76.70;;;;;;5070119;28;20236;-85
2022/03/11 05:15:52;;;;;;;14.13;7.07;;;-1.10;76.90;;;;;;5066211;28;20708;-86
2022/03/11 05:18:18;;;;;;;12.77;7.07;;;-1.20;76.70;;;;;;5067122;28;20256;-85
2022/03/11 05:20:45;;;;;;;12.17;7.77;;;-1.10;76.70;;;;;;5066215;28;20776;-86
2022/03/11 05:23:13;;;;;;;12.53;7.20;;;-1.20;76.90;;;;;;5063958;28;20230;-87
2022/03/11 05:25:40;;;;;;;10.57;6.87;;;-1.20;76.90;;;;;;5066901;28;20226;-85
2022/03/11 05:28:08;;;;;;;12.87;7.33;;;-1.20;77.00;;;;;;5069331;28;20229;-82
2022/03/11 05:30:36;;;;;;;10.73;7.03;;;-1.20;77.10;;;;;;5069196;28;20270;-84
2022/03/11 05:33:05;;;;;;;11.50;6.97;;;-1.20;77.00;;;;;;5067814;28;20231;-80
2022/03/11 05:35:33;;;;;;;12.00;7.07;;;-1.30;77.00;;;;;;5068670;28;20235;-80
2022/03/11 05:38:00;;;;;;;11.13;8.07;;;-1.30;76.80;;;;;;5072709;28;20223;-80
2022/03/11 05:40:27;;;;;;;12.40;7.20;;;-1.30;77.00;;;;;;5070100;28;20227;-82
2022/03/11 05:42:53;;;;;;;11.47;6.97;;;-1.30;76.80;;;;;;5068690;28;20233;-82
2022/03/11 05:45:20;;;;;;;12.93;7.47;;;-1.30;76.90;;;;;;5065745;28;20325;-82
2022/03/11 05:47:47;;;;;;;13.10;7.50;;;-1.30;76.90;;;;;;5068013;28;20259;-82
2022/03/11 05:50:15;;;;;;;12.87;6.80;;;-1.30;76.90;;;;;;5068355;28;20233;-82
2022/03/11 05:52:43;;;;;;;12.97;7.30;;;-1.40;76.70;;;;;;5068615;28;20634;-81
2022/03/11 05:55:10;;;;;;;11.80;7.23;;;-1.40;76.70;;;;;;5064176;28;20330;-82
2022/03/11 05:57:37;;;;;;;12.67;6.93;;;-1.40;76.60;;;;;;5070970;28;20219;-82
2022/03/11 06:00:07;;;;;;;13.03;6.97;;;-1.30;76.60;;;;;;5067792;28;20228;-82
2022/03/11 06:02:40;;;;;;;12.60;6.87;;;-1.40;76.60;;;;;;5069292;28;20679;-82
2022/03/11 06:05:10;;;;;;;11.60;7.30;;;-1.40;76.60;;;;;;5066960;28;20227;-79
2022/03/11 06:07:38;;;;;;;13.33;7.73;;;-1.40;76.60;;;;;;5069622;28;20227;-81
2022/03/11 06:10:06;;;;;;;12.67;6.97;;;-1.30;76.60;;;;;;5066511;28;20228;-82
2022/03/11 06:12:33;;;;;;;11.97;6.70;;;-1.30;76.70;;;;;;5070618;28;20248;-80
2022/03/11 06:15:00;;;;;;;10.77;7.10;;;-1.30;76.60;;;;;;5066811;28;20238;-80
2022/03/11 06:17:27;;;;;;;11.67;6.77;;;-1.20;76.30;;;;;;5066267;28;20594;-81
2022/03/11 06:19:53;;;;;;;14.37;7.40;;;-1.20;76.40;;;;;;5063478;28;20950;-81
2022/03/11 06:22:20;;;;;;;12.07;7.50;;;-1.10;76.30;;;;;;5064002;28;20719;-81
2022/03/11 06:24:48;;;;;;;12.73;7.70;;;-1.10;76.40;;;;;;5067195;28;20227;-81
2022/03/11 06:27:15;;;;;;;12.17;7.47;;;-1.10;76.10;;;;;;5070150;28;20246;-81
2022/03/11 06:29:42;;;;;;;13.07;7.40;;;-1.00;76.00;;;;;;5067507;28;20239;-81
2022/03/11 06:32:09;;;;;;;12.20;6.80;;;-0.90;76.00;;;;;;5071412;28;20409;-81
2022/03/11 06:34:37;;;;;;;11.60;7.17;;;-0.90;75.50;;;;;;5072638;28;20236;-80
2022/03/11 06:37:04;;;;;;;12.07;7.13;;;-0.80;75.60;;;;;;5072173;28;20226;-80
2022/03/11 06:39:31;;;;;;;12.13;7.27;;;-0.70;75.40;;;;;;5070621;28;20321;-80
2022/03/11 06:41:59;;;;;;;12.23;7.40;;;-0.60;75.00;;;;;;5099819;28;20228;-80
2022/03/11 06:44:31;;;;;;;12.10;7.10;;;-0.50;75.40;;;;;;5072205;28;20247;-81
2022/03/11 06:46:58;;;;;;;10.10;6.90;;;-0.50;73.80;;;;;;5069798;28;20578;-80
2022/03/11 06:49:24;;;;;;;12.37;6.90;;;-0.40;73.80;;;;;;5071159;28;20236;-81
2022/03/11 06:51:51;;;;;;;13.27;7.17;;;-0.50;73.40;;;;;;5071380;28;20232;-81
2022/03/11 06:54:18;;;;;;;10.87;7.23;;;-0.50;73.20;;;;;;5069750;28;20225;-81
2022/03/11 06:56:44;;;;;;;12.20;7.63;;;-0.40;74.30;;;;;;5070989;28;20942;-80
2022/03/11 06:59:12;;;;;;;10.83;7.00;;;-0.30;74.50;;;;;;5071162;28;20224;-80
2022/03/11 07:01:39;;;;;;;15.40;7.63;;;-0.30;74.40;;;;;;5068479;28;20255;-80
2022/03/11 07:04:06;;;;;;;12.63;7.30;;;-0.30;73.40;;;;;;5065071;28;20235;-80
2022/03/11 07:06:32;;;;;;;12.87;7.13;;;-0.20;73.50;;;;;;5071136;28;20735;-81
2022/03/11 07:08:59;;;;;;;11.57;7.20;;;-0.30;72.50;;;;;;5071430;28;20223;-80
2022/03/11 07:11:26;;;;;;;11.87;7.00;;;-0.20;73.20;;;;;;5072164;28;20234;-81
2022/03/11 07:13:52;;;;;;;10.13;6.87;;;-0.20;73.00;;;;;;5071786;28;20255;-81
2022/03/11 07:16:20;;;;;;;11.83;6.93;;;-0.20;73.00;;;;;;5071782;28;20749;-81
2022/03/11 07:18:47;;;;;;;11.47;7.07;;;-0.10;72.50;;;;;;5070734;28;20223;-82
2022/03/11 07:21:14;;;;;;;13.43;7.23;;;-0.10;72.50;;;;;;5071569;28;20604;-81
2022/03/11 07:23:41;;;;;;;11.30;6.93;;;0.00;72.10;;;;;;5071512;28;20232;-81
2022/03/11 07:26:07;;;;;;;12.80;6.90;;;0.10;72.60;;;;;;5072195;28;20229;-80
2022/03/11 07:28:34;;;;;;;12.80;7.53;;;0.20;72.50;;;;;;5070335;28;20246;-81
2022/03/11 07:31:01;;;;;;;10.67;7.20;;;0.20;70.60;;;;;;5071807;28;20221;-81
2022/03/11 07:33:29;;;;;;;11.27;7.13;;;0.30;70.30;;;;;;5069325;28;20637;-81
2022/03/11 07:35:56;;;;;;;11.57;7.00;;;0.30;70.40;;;;;;5065816;28;21692;-80
2022/03/11 07:38:24;;;;;;;12.80;7.70;;;0.40;70.60;;;;;;5071145;28;20223;-81
2022/03/11 07:40:51;;;;;;;12.17;7.43;;;0.60;70.70;;;;;;5071621;28;20238;-81
2022/03/11 07:43:18;;;;;;;14.77;8.57;;;0.80;70.20;;;;;;5071405;28;20219;-81
2022/03/11 07:45:44;;;;;;;11.03;7.10;;;1.00;70.00;;;;;;5070021;28;20320;-81
2022/03/11 07:48:11;;;;;;;11.90;7.13;;;1.30;69.30;;;;;;5070111;28;20245;-81
2022/03/11 07:50:40;;;;;;;11.60;6.97;;;1.50;69.60;;;;;;5069519;28;20219;-80
2022/03/11 07:53:07;;;;;;;11.50;6.70;;;1.90;70.20;;;;;;5070361;28;20234;-81
2022/03/11 07:55:34;;;;;;;11.33;7.40;;;2.20;68.40;;;;;;5071052;28;20234;-81
2022/03/11 07:58:01;;;;;;;10.97;6.93;;;2.50;67.00;;;;;;5071392;28;20231;-81
2022/03/11 08:00:27;;;;;;;10.87;6.70;;;2.80;67.30;;;;;;5070862;28;20294;-81
2022/03/11 08:02:54;;;;;;;11.10;7.00;;;3.00;64.40;;;;;;5063386;28;20226;-81
2022/03/11 08:05:21;;;;;;;11.17;6.60;;;3.10;65.50;;;;;;5066014;28;20233;-81
2022/03/11 08:07:50;;;;;;;12.37;6.83;;;3.20;64.30;;;;;;5071174;28;20243;-80
2022/03/11 08:10:17;;;;;;;13.53;7.17;;;3.30;63.30;;;;;;5069242;28;20279;-82
2022/03/11 08:12:44;;;;;;;10.07;7.13;;;3.30;63.70;;;;;;5070508;28;20228;-81
2022/03/11 08:15:12;;;;;;;12.90;6.97;;;3.40;64.20;;;;;;5076196;28;20664;-81
2022/03/11 08:17:40;;;;;;;12.07;6.90;;;3.40;62.20;;;;;;5071901;28;20228;-81
2022/03/11 08:20:10;;;;;;;12.23;6.77;;;3.40;62.40;;;;;;5068749;28;20235;-82
2022/03/11 08:22:37;;;;;;;10.57;6.60;;;3.30;61.90;;;;;;5075590;28;20225;-81
2022/03/11 08:25:09;;;;;;;11.63;6.67;;;3.20;61.50;;;;;;5068521;28;20231;-81
2022/03/11 08:27:36;;;;;;;11.47;6.47;;;3.30;61.50;;;;;;5064106;28;20221;-81
2022/03/11 08:30:04;;;;;;;12.00;6.87;;;3.20;60.70;;;;;;5053456;28;20227;-81
2022/03/11 08:32:31;;;;;;;12.37;7.23;;;3.20;60.90;;;;;;5067184;28;20235;-81
2022/03/11 08:34:58;;;;;;;12.13;7.00;;;3.20;60.40;;;;;;5067093;28;20682;-81
2022/03/11 08:37:25;;;;;;;11.30;6.83;;;3.30;60.30;;;;;;5067712;28;20631;-81
2022/03/11 08:39:53;;;;;;;9.30;6.37;;;3.40;62.10;;;;;;5068212;28;20230;-81
2022/03/11 08:42:21;;;;;;;11.17;7.10;;;3.60;60.80;;;;;;5062609;28;20316;-81
2022/03/11 08:44:48;;;;;;;12.53;7.47;;;3.70;60.00;;;;;;5065273;28;20241;-81
2022/03/11 08:47:15;;;;;;;11.60;7.23;;;3.90;59.70;;;;;;5070223;28;20238;-81
2022/03/11 08:49:44;;;;;;;11.87;6.77;;;4.10;59.30;;;;;;5065053;28;20229;-81
2022/03/11 08:52:11;;;;;;;11.17;6.97;;;4.40;61.40;;;;;;5067038;28;20230;-81
2022/03/11 08:54:37;;;;;;;11.87;7.17;;;4.70;61.10;;;;;;5072482;28;20265;-81
2022/03/11 08:57:04;;;;;;;11.43;6.80;;;5.10;61.20;;;;;;5065669;28;20224;-81
2022/03/11 08:59:32;;;;;;;11.93;7.20;;;5.50;58.70;;;;;;5065310;28;20257;-81
2022/03/11 09:01:59;;;;;;;10.17;7.20;;;5.90;57.70;;;;;;5073400;28;20225;-81
2022/03/11 09:04:26;;;;;;;11.47;7.10;;;6.20;56.60;;;;;;5065184;28;20335;-81
2022/03/11 09:06:53;;;;;;;12.80;6.57;;;6.50;56.80;;;;;;5067026;28;20253;-81
2022/03/11 09:09:20;;;;;;;10.73;7.00;;;6.60;56.20;;;;;;5072854;28;20327;-81
2022/03/11 09:11:47;;;;;;;10.60;7.10;;;6.90;54.70;;;;;;5067472;28;20286;-81
2022/03/11 09:14:14;;;;;;;11.87;6.83;;;7.20;55.90;;;;;;5068908;28;20226;-81
2022/03/11 09:16:42;;;;;;;10.83;6.93;;;7.50;56.90;;;;;;5074546;28;20604;-81
2022/03/11 09:19:09;;;;;;;10.13;6.77;;;7.80;55.50;;;;;;5066632;28;20233;-81
2022/03/11 09:21:36;;;;;;;12.87;7.40;;;8.10;54.90;;;;;;5065237;28;20718;-81
2022/03/11 09:24:03;;;;;;;11.67;7.17;;;8.40;54.30;;;;;;5063946;28;20284;-82
2022/03/11 09:26:30;;;;;;;9.30;6.60;;;8.60;54.40;;;;;;5061190;28;20248;-81
2022/03/11 09:29:00;;;;;;;10.53;6.50;;;8.80;53.30;;;;;;5060760;28;20223;-81
2022/03/11 09:31:29;;;;;;;14.80;6.97;;;9.00;53.90;;;;;;5063074;28;20230;-82
2022/03/11 09:33:57;;;;;;;10.40;6.83;;;9.20;53.40;;;;;;5067034;28;20277;-81
2022/03/11 09:36:25;;;;;;;9.70;6.83;;;9.30;52.30;;;;;;5064850;28;20861;-81
2022/03/11 09:38:52;;;;;;;9.83;6.20;;;9.50;52.00;;;;;;5066180;28;20230;-82
2022/03/11 09:41:21;;;;;;;11.77;7.50;;;9.70;52.10;;;;;;5068074;28;20768;-82
2022/03/11 09:43:48;;;;;;;11.00;6.77;;;9.70;48.30;;;;;;5066184;28;20615;-81
2022/03/11 09:46:15;;;;;;;10.33;6.63;;;9.60;47.80;;;;;;5065535;28;20241;-81
2022/03/11 09:48:42;;;;;;;10.33;6.57;;;9.50;49.20;;;;;;5067116;28;21020;-82
2022/03/11 09:51:12;;;;;;;10.77;6.60;;;9.50;50.50;;;;;;5066314;28;20226;-82
2022/03/11 09:53:42;;;;;;;10.10;6.53;;;9.40;46.90;;;;;;5061153;28;20239;-82
2022/03/11 09:56:08;;;;;;;9.57;6.13;;;9.40;48.40;;;;;;5062845;28;20236;-81
2022/03/11 09:58:35;;;;;;;9.27;6.50;;;9.40;49.70;;;;;;5068384;28;20603;-81
2022/03/11 10:01:04;;;;;;;9.27;7.23;;;9.50;49.00;;;;;;5069394;28;20548;-82
2022/03/11 10:03:32;;;;;;;10.17;6.27;;;9.50;47.00;;;;;;5067921;28;20964;-82
2022/03/11 10:05:59;;;;;;;12.63;6.70;;;9.60;47.90;;;;;;5080922;28;20230;-82
2022/03/11 10:08:34;;;;;;;9.27;6.47;;;9.70;47.80;;;;;;5073537;28;20380;-82
2022/03/11 10:11:18;;;;;;;11.97;7.40;;;9.80;48.50;;;;;;5071816;28;20337;-82
2022/03/11 10:13:46;;;;;;;11.43;6.33;;;9.90;49.00;;;;;;5068574;28;20234;-82
2022/03/11 10:16:23;;;;;;;11.73;6.80;;;10.00;48.80;;;;;;5077533;28;20303;-81
2022/03/11 10:18:55;;;;;;;11.13;6.73;;;10.20;48.60;;;;;;5071811;28;20361;-82
2022/03/11 10:21:27;;;;;;;10.67;6.73;;;10.10;43.40;;;;;;5076977;28;20231;-82
2022/03/11 10:23:55;;;;;;;9.23;6.67;;;10.10;44.90;;;;;;5064861;28;20311;-82
2022/03/11 10:26:36;;;;;;;8.63;6.00;;;10.10;45.50;;;;;;5077513;28;20251;-82
2022/03/11 10:29:05;;;;;;;8.43;5.97;;;10.00;43.50;;;;;;5070287;28;20222;-80
2022/03/11 10:31:32;;;;;;;9.80;6.47;;;9.90;44.10;;;;;;5072429;28;20250;-81
2022/03/11 10:34:12;;;;;;;8.77;6.13;;;9.90;43.10;;;;;;5063328;28;20322;-81
2022/03/11 10:36:47;;;;;;;9.07;6.37;;;9.70;42.60;;;;;;5070556;28;20313;-81
2022/03/11 10:39:16;;;;;;;9.57;5.90;;;9.80;44.50;;;;;;5070386;28;20229;-81
2022/03/11 10:41:43;;;;;;;10.33;6.40;;;9.80;45.00;;;;;;5072105;28;20805;-81
2022/03/11 10:44:12;;;;;;;11.60;6.20;;;9.70;44.00;;;;;;5069071;28;20725;-81
2022/03/11 10:46:40;;;;;;;11.97;6.03;;;9.70;43.70;;;;;;5068231;28;20227;-81
2022/03/11 10:49:07;;;;;;;9.53;5.97;;;9.70;43.90;;;;;;5069261;28;20254;-81
2022/03/11 10:51:38;;;;;;;10.40;6.60;;;9.70;42.90;;;;;;5073758;28;20231;-82
2022/03/11 10:54:07;;;;;;;9.17;5.93;;;9.80;42.50;;;;;;5067530;28;20868;-81
2022/03/11 10:56:39;;;;;;;9.53;5.90;;;9.70;42.90;;;;;;5066825;28;20230;-81
2022/03/11 10:59:06;;;;;;;12.47;6.83;;;9.70;43.00;;;;;;5065465;28;20317;-81
2022/03/11 11:01:38;;;;;;;13.37;5.97;;;9.60;43.30;;;;;;5062164;28;20225;-80
2022/03/11 11:04:07;;;;;;;10.03;6.13;;;9.70;42.90;;;;;;5066221;28;20291;-82
2022/03/11 11:06:35;;;;;;;9.27;6.13;;;9.80;45.20;;;;;;5066582;28;20258;-81
2022/03/11 11:09:02;;;;;;;9.93;6.23;;;9.90;45.20;;;;;;5066697;28;20244;-81
2022/03/11 11:11:32;;;;;;;9.30;6.37;;;10.00;42.50;;;;;;5063783;28;20721;-82
2022/03/11 11:14:04;;;;;;;8.33;5.73;;;10.10;42.70;;;;;;5065315;28;20229;-81
2022/03/11 11:16:32;;;;;;;9.77;6.27;;;10.20;43.70;;;;;;5070908;28;20766;-81
2022/03/11 11:19:00;;;;;;;11.63;6.30;;;10.20;41.90;;;;;;5069240;28;20319;-81
2022/03/11 11:21:27;;;;;;;9.13;6.07;;;10.10;41.60;;;;;;5070231;28;20224;-81
2022/03/11 11:23:56;;;;;;;9.67;5.90;;;10.10;42.70;;;;;;5076028;28;20232;-81
2022/03/11 11:26:24;;;;;;;8.83;6.00;;;10.30;44.00;;;;;;5070081;28;20234;-81
2022/03/11 11:28:53;;;;;;;9.37;5.93;;;10.20;42.20;;;;;;5069228;28;20233;-81
2022/03/11 11:31:23;;;;;;;9.30;5.90;;;10.30;43.00;;;;;;5066148;28;20230;-81
2022/03/11 11:33:51;;;;;;;9.77;6.00;;;10.30;42.00;;;;;;5066789;28;20820;-82
2022/03/11 11:36:34;;;;;;;10.20;6.30;;;10.30;41.70;;;;;;5067029;28;20237;-81
2022/03/11 11:39:05;;;;;;;9.63;6.33;;;10.20;41.60;;;;;;5073224;28;20230;-81
2022/03/11 11:41:34;;;;;;;10.63;5.90;;;10.30;42.40;;;;;;5057897;28;20228;-81
2022/03/11 11:44:02;;;;;;;8.80;5.73;;;10.40;42.30;;;;;;5065410;28;20223;-81
2022/03/11 11:46:31;;;;;;;8.17;5.83;;;10.20;40.40;;;;;;5061973;28;20236;-81
2022/03/11 11:49:12;;;;;;;9.03;5.80;;;10.20;41.30;;;;;;5065275;28;20286;-81
2022/03/11 11:51:59;;;;;;;7.27;5.73;;;10.20;40.30;;;;;;5071497;28;20306;-79
2022/03/11 11:54:45;;;;;;;11.47;6.03;;;10.00;40.20;;;;;;5070129;28;20320;-83
2022/03/11 11:57:19;;;;;;;9.60;5.90;;;10.10;41.90;;;;;;5068697;28;20226;-81
2022/03/11 11:59:46;;;;;;;12.00;6.03;;;10.10;41.40;;;;;;5067769;28;20239;-86
2022/03/11 12:02:38;;;;;;;7.93;5.40;;;10.10;42.10;;;;;;5067589;28;20264;-81
2022/03/11 12:05:40;;;;;;;8.47;5.67;;;10.20;41.30;;;;;;5057515;28;20234;-81
2022/03/11 12:08:07;;;;;;;7.70;5.47;;;10.30;42.60;;;;;;5069023;28;20224;-79
2022/03/11 12:10:33;;;;;;;7.50;5.77;;;10.50;44.10;;;;;;5068064;28;20241;-80
2022/03/11 12:13:04;;;;;;;8.13;5.40;;;10.60;43.00;;;;;;5070354;28;20236;-80
2022/03/11 12:15:38;;;;;;;9.13;6.33;;;10.80;43.00;;;;;;5065460;28;20240;-81
2022/03/11 12:18:44;;;;;;;9.13;6.03;;;11.00;43.70;;;;;;5065137;28;20230;-81
2022/03/11 12:21:24;;;;;;;10.20;5.93;;;11.10;41.40;;;;;;5070947;28;20258;-79
2022/03/11 12:23:51;;;;;;;11.13;6.40;;;11.20;41.50;;;;;;5066636;28;20276;-80
2022/03/11 12:26:17;;;;;;;8.50;5.77;;;11.20;40.50;;;;;;5066108;28;20359;-80
2022/03/11 12:28:44;;;;;;;8.63;5.67;;;11.20;41.60;;;;;;5067301;28;20258;-80
2022/03/11 12:31:13;;;;;;;8.07;5.13;;;11.10;41.30;;;;;;5069184;28;20275;-80
2022/03/11 12:33:44;;;;;;;9.63;5.73;;;11.10;41.60;;;;;;5058779;28;20231;-81
2022/03/11 12:36:12;;;;;;;8.67;5.83;;;11.10;42.10;;;;;;5065910;28;20260;-80
2022/03/11 12:38:40;;;;;;;8.63;5.57;;;11.10;40.50;;;;;;5088536;28;20230;-80
2022/03/11 12:41:09;;;;;;;9.20;5.80;;;11.10;40.40;;;;;;5066936;28;20350;-80
2022/03/11 12:43:36;;;;;;;9.07;6.23;;;11.00;39.80;;;;;;5067136;28;20658;-80
2022/03/11 12:46:05;;;;;;;9.03;5.47;;;11.00;40.80;;;;;;5064769;28;21438;-81
2022/03/11 12:48:36;;;;;;;12.50;6.03;;;11.00;41.60;;;;;;5066080;28;20712;-80
2022/03/11 12:51:06;;;;;;;10.00;5.80;;;11.00;41.00;;;;;;5064137;28;20228;-81